createdAt,value
2024-02-06T00:00:39.597Z,20
2024-02-06T00:02:39.445Z,20
2024-02-06T00:04:39.502Z,18
2024-02-06T00:06:39.542Z,20
2024-02-06T00:08:39.688Z,19
2024-02-06T00:10:39.524Z,21
2024-02-06T00:12:39.956Z,22
2024-02-06T00:14:39.487Z,22
2024-02-06T00:16:39.641Z,20
2024-02-06T00:18:39.809Z,20
2024-02-06T00:20:39.461Z,22
2024-02-06T00:22:39.621Z,22
2024-02-06T00:24:39.465Z,21
2024-02-06T00:26:39.442Z,19
2024-02-06T00:28:39.522Z,22
2024-02-06T00:30:39.414Z,21
2024-02-06T00:32:39.510Z,24
2024-02-06T00:34:39.496Z,22
2024-02-06T00:38:45.713Z,22
2024-02-06T00:40:45.458Z,23
2024-02-06T00:42:45.276Z,20
2024-02-06T00:44:45.233Z,22
2024-02-06T00:46:45.258Z,20
2024-02-06T00:48:45.369Z,20
2024-02-06T00:50:45.452Z,21
2024-02-06T00:52:45.298Z,22
2024-02-06T00:55:19.553Z,34
2024-02-06T00:57:00.702Z,23
2024-02-06T00:59:00.713Z,19
2024-02-06T01:01:00.760Z,20
2024-02-06T01:03:31.794Z,23
2024-02-06T01:05:15.049Z,21
2024-02-06T01:07:14.827Z,20
2024-02-06T01:09:14.865Z,19
2024-02-06T01:11:14.728Z,20
2024-02-06T01:13:14.795Z,20
2024-02-06T01:15:14.717Z,19
2024-02-06T01:17:14.786Z,19
2024-02-06T01:19:14.775Z,20
2024-02-06T01:21:14.735Z,19
2024-02-06T01:41:18.279Z,19
2024-02-06T01:42:29.314Z,20
2024-02-06T01:44:29.323Z,22
2024-02-06T01:47:08.151Z,14
2024-02-06T01:48:23.835Z,22
2024-02-06T01:50:23.348Z,17
2024-02-06T01:52:23.416Z,20
2024-02-06T01:54:23.366Z,20
2024-02-06T01:56:23.364Z,20
2024-02-06T01:58:23.917Z,20
2024-02-06T02:00:23.455Z,20
2024-02-06T02:02:23.407Z,19
2024-02-06T02:04:23.458Z,20
2024-02-06T02:06:24.411Z,18
2024-02-06T02:08:23.624Z,16
2024-02-06T02:10:23.330Z,20
2024-02-06T02:13:24.496Z,21
2024-02-06T02:14:58.293Z,18
2024-02-06T02:16:58.311Z,20
2024-02-06T02:18:58.419Z,19
2024-02-06T02:20:58.385Z,19
2024-02-06T02:25:12.694Z,17
2024-02-06T02:27:12.853Z,17
2024-02-06T02:29:13.301Z,17
2024-02-06T02:31:13.088Z,16
2024-02-06T02:33:12.761Z,20
2024-02-06T02:35:12.673Z,13
2024-02-06T02:37:13.207Z,13
2024-02-06T02:39:12.562Z,19
2024-02-06T02:41:12.587Z,19
2024-02-06T02:43:12.955Z,16
2024-02-06T02:45:12.666Z,18
2024-02-06T02:47:49.345Z,21
2024-02-06T02:50:11.546Z,20
2024-02-06T02:51:56.601Z,19
2024-02-06T02:53:56.521Z,18
2024-02-06T02:55:56.507Z,16
2024-02-06T02:57:56.559Z,16
2024-02-06T02:59:59.199Z,12
2024-02-06T03:01:56.601Z,15
2024-02-06T03:03:56.686Z,13
2024-02-06T03:05:56.657Z,16
2024-02-06T03:07:56.573Z,14
2024-02-06T03:09:56.518Z,14
2024-02-06T03:11:56.530Z,16
2024-02-06T03:13:56.571Z,15
2024-02-06T03:15:56.658Z,15
2024-02-06T03:17:57.429Z,12
2024-02-06T03:19:56.591Z,15
2024-02-06T03:21:56.602Z,15
2024-02-06T03:26:19.258Z,13
2024-02-06T03:28:19.352Z,16
2024-02-06T03:30:21.795Z,15
2024-02-06T03:32:19.327Z,15
2024-02-06T03:34:19.450Z,15
2024-02-06T03:36:19.329Z,14
2024-02-06T03:38:19.260Z,16
2024-02-06T03:40:19.513Z,12
2024-02-06T03:42:19.230Z,16
2024-02-06T03:44:19.436Z,13
2024-02-06T03:49:31.853Z,17
2024-02-06T03:51:31.678Z,14
2024-02-06T03:53:32.696Z,15
2024-02-06T03:55:31.673Z,16
2024-02-06T03:57:31.806Z,15
2024-02-06T03:59:31.607Z,16
2024-02-06T04:01:31.680Z,14
2024-02-06T04:03:31.706Z,14
2024-02-06T04:05:31.641Z,16
2024-02-06T04:07:31.661Z,14
2024-02-06T04:09:31.583Z,10
2024-02-06T04:11:46.648Z,17
2024-02-06T04:13:01.121Z,18
2024-02-06T04:15:01.201Z,14
2024-02-06T04:17:01.128Z,12
2024-02-06T04:19:01.291Z,17
2024-02-06T04:21:01.160Z,13
2024-02-06T04:23:01.082Z,14
2024-02-06T04:25:01.106Z,15
2024-02-06T04:27:01.073Z,14
2024-02-06T04:29:54.338Z,15
2024-02-06T04:30:55.878Z,16
2024-02-06T04:32:55.957Z,13
2024-02-06T04:34:55.915Z,16
2024-02-06T04:36:55.893Z,16
2024-02-06T04:38:55.845Z,14
2024-02-06T04:40:55.985Z,8
2024-02-06T04:42:55.897Z,14
2024-02-06T04:44:55.897Z,16
2024-02-06T04:46:55.884Z,15
2024-02-06T04:50:56.096Z,14
2024-02-06T04:52:56.069Z,13
2024-02-06T04:54:56.163Z,15
2024-02-06T04:57:33.150Z,27
2024-02-06T04:59:15.251Z,25
2024-02-06T05:01:47.031Z,18
2024-02-06T05:02:46.971Z,15
2024-02-06T05:04:18.805Z,15
2024-02-06T05:05:19.317Z,11
2024-02-06T05:07:19.243Z,12
2024-02-06T05:09:19.133Z,14
2024-02-06T05:11:19.124Z,14
2024-02-06T05:13:19.142Z,9
2024-02-06T05:15:19.116Z,13
2024-02-06T05:17:19.179Z,14
2024-02-06T05:19:19.190Z,15
2024-02-06T05:21:19.117Z,14
2024-02-06T05:23:19.106Z,13
2024-02-06T05:26:16.923Z,14
2024-02-06T05:27:43.019Z,13
2024-02-06T05:29:42.967Z,15
2024-02-06T05:31:14.273Z,14
2024-02-06T05:32:42.717Z,14
2024-02-06T05:34:42.815Z,14
2024-02-06T05:39:01.680Z,12
2024-02-06T05:41:01.697Z,13
2024-02-06T05:43:01.724Z,10
2024-02-06T05:45:01.622Z,10
2024-02-06T05:47:01.696Z,13
2024-02-06T05:49:01.868Z,15
2024-02-06T05:49:34.610Z,16
2024-02-06T05:51:09.694Z,16
2024-02-06T05:53:08.948Z,18
2024-02-06T05:55:09.613Z,13
2024-02-06T05:57:09.042Z,15
2024-02-06T05:59:08.819Z,15
2024-02-06T06:01:09.054Z,11
2024-02-06T06:03:09.000Z,14
2024-02-06T06:05:09.280Z,14
2024-02-06T06:07:09.049Z,12
2024-02-06T06:09:08.832Z,17
2024-02-06T06:11:08.978Z,14
2024-02-06T06:13:08.961Z,17
2024-02-06T06:15:09.008Z,16
2024-02-06T06:17:08.881Z,15
2024-02-06T06:19:08.882Z,15
2024-02-06T06:21:08.935Z,10
2024-02-06T06:23:08.944Z,14
2024-02-06T06:25:47.175Z,18
2024-02-06T06:26:52.490Z,14
2024-02-06T06:28:52.515Z,14
2024-02-06T06:30:52.546Z,7
2024-02-06T06:32:41.579Z,15
2024-02-06T06:34:40.509Z,14
2024-02-06T06:37:19.196Z,23
2024-02-06T06:39:03.751Z,22
2024-02-06T06:41:03.732Z,17
2024-02-06T06:43:03.808Z,16
2024-02-06T06:45:03.902Z,15
2024-02-06T06:47:03.786Z,18
2024-02-06T06:49:03.778Z,18
2024-02-06T06:51:03.689Z,14
2024-02-06T06:53:03.784Z,8
2024-02-06T06:55:03.933Z,12
2024-02-06T06:57:03.750Z,8
2024-02-06T06:59:03.723Z,13
2024-02-06T07:01:03.827Z,12
2024-02-06T07:03:03.749Z,12
2024-02-06T07:07:19.697Z,13
2024-02-06T07:09:19.627Z,17
2024-02-06T07:11:19.628Z,15
2024-02-06T07:13:19.720Z,10
2024-02-06T07:15:19.693Z,10
2024-02-06T07:17:19.671Z,12
2024-02-06T07:19:19.753Z,10
2024-02-06T07:22:03.547Z,12
2024-02-06T07:23:25.174Z,13
2024-02-06T07:25:25.282Z,14
2024-02-06T07:27:25.196Z,12
2024-02-06T07:29:25.122Z,15
2024-02-06T07:31:25.171Z,9
2024-02-06T07:33:25.354Z,13
2024-02-06T07:35:25.223Z,13
2024-02-06T07:37:25.215Z,13
2024-02-06T07:39:25.177Z,12
2024-02-06T07:41:25.145Z,11
2024-02-06T07:43:25.241Z,15
2024-02-06T07:45:25.143Z,13
2024-02-06T07:48:20.862Z,16
2024-02-06T07:50:10.032Z,13
2024-02-06T07:52:09.713Z,16
2024-02-06T07:54:09.746Z,15
2024-02-06T07:56:09.640Z,17
2024-02-06T07:59:46.637Z,24
2024-02-06T08:01:43.043Z,18
2024-02-06T08:03:42.339Z,14
2024-02-06T08:05:42.353Z,12
2024-02-06T08:07:42.415Z,14
2024-02-06T08:09:42.123Z,16
2024-02-06T08:11:42.167Z,12
2024-02-06T08:15:49.692Z,16
2024-02-06T08:17:49.709Z,13
2024-02-06T08:19:49.742Z,13
2024-02-06T08:21:49.562Z,14
2024-02-06T08:23:49.619Z,13
2024-02-06T08:25:49.642Z,11
2024-02-06T08:27:49.699Z,11
2024-02-06T08:29:49.655Z,11
2024-02-06T08:31:50.539Z,9
2024-02-06T08:33:49.598Z,8
2024-02-06T08:35:49.705Z,9
2024-02-06T08:37:49.865Z,9
2024-02-06T08:39:49.652Z,9
2024-02-06T08:41:49.559Z,13
2024-02-06T08:43:55.697Z,14
2024-02-06T08:45:49.589Z,14
2024-02-06T08:47:49.613Z,9
2024-02-06T08:49:36.576Z,12
2024-02-06T08:51:21.182Z,10
2024-02-06T08:53:21.172Z,8
2024-02-06T08:55:21.252Z,9
2024-02-06T08:57:21.227Z,8
2024-02-06T08:59:21.125Z,8
2024-02-06T09:01:23.241Z,10
2024-02-06T09:03:21.250Z,10
2024-02-06T09:05:21.429Z,10
2024-02-06T09:07:22.185Z,10
2024-02-06T09:09:23.239Z,7
2024-02-06T09:11:21.150Z,6
2024-02-06T09:13:21.995Z,9
2024-02-06T09:15:21.147Z,9
2024-02-06T09:17:21.161Z,8
2024-02-06T09:19:21.218Z,6
2024-02-06T09:21:21.198Z,6
2024-02-06T09:23:21.199Z,6
2024-02-06T09:25:21.250Z,7
2024-02-06T09:27:21.201Z,3
2024-02-06T09:29:21.138Z,8
2024-02-06T09:31:21.904Z,8
2024-02-06T09:33:21.315Z,7
2024-02-06T09:35:21.260Z,7
2024-02-06T09:37:21.152Z,5
2024-02-06T09:39:21.205Z,7
2024-02-06T09:41:22.424Z,7
2024-02-06T09:43:21.536Z,7
2024-02-06T09:45:21.236Z,7
2024-02-06T09:47:21.565Z,7
2024-02-06T09:49:21.254Z,9
2024-02-06T09:51:22.563Z,7
2024-02-06T09:53:21.753Z,7
2024-02-06T09:55:22.404Z,8
2024-02-06T09:57:21.466Z,8
2024-02-06T09:59:21.399Z,7
2024-02-06T10:01:21.616Z,7
2024-02-06T10:03:23.281Z,6
2024-02-06T10:05:21.980Z,7
2024-02-06T10:07:21.740Z,5
2024-02-06T10:09:24.989Z,6
2024-02-06T10:11:55.297Z,11
2024-02-06T10:13:50.389Z,7
2024-02-06T10:15:50.170Z,8
2024-02-06T10:17:50.208Z,6
2024-02-06T10:19:50.118Z,7
2024-02-06T10:21:53.160Z,9
2024-02-06T10:23:50.284Z,6
2024-02-06T10:25:50.218Z,7
2024-02-06T10:27:56.858Z,7
2024-02-06T10:30:00.842Z,6
2024-02-06T10:31:50.636Z,7
2024-02-06T10:33:50.190Z,5
2024-02-06T10:35:50.355Z,7
2024-02-06T10:37:50.429Z,6
2024-02-06T10:39:50.128Z,7
2024-02-06T10:42:22.632Z,6
2024-02-06T10:43:50.784Z,0
2024-02-06T10:45:56.752Z,6
2024-02-06T10:47:55.922Z,6
2024-02-06T10:50:00.493Z,5
2024-02-06T10:51:50.291Z,5
2024-02-06T10:53:50.159Z,5
2024-02-06T10:55:50.375Z,6
2024-02-06T10:57:55.131Z,6
2024-02-06T10:59:52.556Z,5
2024-02-06T11:01:50.226Z,5
2024-02-06T11:03:53.847Z,5
2024-02-06T11:05:53.631Z,5
2024-02-06T11:07:54.037Z,5
2024-02-06T11:09:51.719Z,6
2024-02-06T11:11:50.281Z,5
2024-02-06T11:13:52.053Z,3
2024-02-06T11:15:50.578Z,5
2024-02-06T11:17:50.274Z,5
2024-02-06T11:19:53.578Z,4
2024-02-06T11:21:52.278Z,6
2024-02-06T11:23:51.148Z,5
2024-02-06T11:25:53.143Z,6
2024-02-06T11:27:50.720Z,5
2024-02-06T11:29:50.631Z,5
2024-02-06T11:31:50.490Z,4
2024-02-06T11:33:50.137Z,5
2024-02-06T11:38:25.221Z,6
2024-02-06T11:40:23.744Z,6
2024-02-06T11:42:25.619Z,7
2024-02-06T11:44:17.440Z,5
2024-02-06T11:46:17.640Z,5
2024-02-06T11:48:25.791Z,5
2024-02-06T11:50:28.318Z,3
2024-02-06T11:52:25.304Z,4
2024-02-06T11:54:17.553Z,5
2024-02-06T11:56:17.346Z,3
2024-02-06T11:58:17.722Z,5
2024-02-06T12:00:18.949Z,7
2024-02-06T12:02:17.450Z,5
2024-02-06T12:04:22.308Z,7
2024-02-06T12:06:25.181Z,5
2024-02-06T12:08:18.512Z,6
2024-02-06T12:11:49.324Z,5
2024-02-06T12:13:53.056Z,5
2024-02-06T12:15:49.301Z,5
2024-02-06T12:17:49.252Z,6
2024-02-06T12:19:49.416Z,5
2024-02-06T12:21:49.238Z,4
2024-02-06T12:23:49.313Z,5
2024-02-06T12:25:49.817Z,5
2024-02-06T12:27:56.666Z,5
2024-02-06T12:29:49.205Z,5
2024-02-06T12:31:49.380Z,5
2024-02-06T12:33:49.533Z,6
2024-02-06T12:35:49.275Z,4
2024-02-06T12:37:49.403Z,5
2024-02-06T12:39:58.044Z,5
2024-02-06T12:41:58.309Z,5
2024-02-06T12:43:50.119Z,6
2024-02-06T12:45:49.640Z,5
2024-02-06T12:47:49.880Z,5
2024-02-06T12:49:49.432Z,5
2024-02-06T12:51:49.224Z,6
2024-02-06T12:53:49.292Z,5
2024-02-06T12:55:49.801Z,8
2024-02-06T12:57:50.341Z,5
2024-02-06T12:59:51.995Z,5
2024-02-06T13:01:49.524Z,4
2024-02-06T13:03:56.666Z,5
2024-02-06T13:05:53.959Z,5
2024-02-06T13:07:49.385Z,7
2024-02-06T13:12:13.401Z,7
2024-02-06T13:14:13.508Z,5
2024-02-06T13:16:13.343Z,7
2024-02-06T13:18:15.937Z,6
2024-02-06T13:20:13.853Z,6
2024-02-06T13:22:23.109Z,4
2024-02-06T13:24:13.269Z,5
2024-02-06T13:26:13.492Z,6
2024-02-06T13:28:13.319Z,6
2024-02-06T13:30:13.882Z,6
2024-02-06T13:32:13.152Z,7
2024-02-06T13:34:13.257Z,7
2024-02-06T13:36:13.276Z,6
2024-02-06T13:38:15.390Z,6
2024-02-06T13:40:13.534Z,5
2024-02-06T13:42:13.142Z,4
2024-02-06T13:44:13.146Z,6
2024-02-06T13:46:13.169Z,4
2024-02-06T13:48:13.274Z,7
2024-02-06T13:50:13.180Z,6
2024-02-06T13:52:13.207Z,5
2024-02-06T13:54:13.421Z,6
2024-02-06T13:56:13.721Z,5
2024-02-06T13:58:13.053Z,3
2024-02-06T14:00:43.014Z,8
2024-02-06T14:02:19.833Z,6
2024-02-06T14:04:20.771Z,6
2024-02-06T14:06:20.057Z,5
2024-02-06T14:08:19.690Z,6
2024-02-06T14:10:19.800Z,5
2024-02-06T14:11:05.380Z,4
2024-02-06T14:12:15.865Z,7
2024-02-06T14:14:15.930Z,6
2024-02-06T14:16:16.386Z,5
2024-02-06T14:18:15.975Z,6
2024-02-06T14:20:16.708Z,6
2024-02-06T14:22:19.085Z,5
2024-02-06T14:24:17.152Z,6
2024-02-06T14:26:18.109Z,4
2024-02-06T14:28:15.953Z,6
2024-02-06T14:30:16.061Z,4
2024-02-06T14:32:15.838Z,6
2024-02-06T14:34:15.970Z,6
2024-02-06T14:36:15.899Z,8
2024-02-06T14:38:15.917Z,6
2024-02-06T14:40:15.978Z,5
2024-02-06T14:43:57.812Z,6
2024-02-06T14:45:57.761Z,5
2024-02-06T14:47:57.948Z,8
2024-02-06T14:49:57.908Z,7
2024-02-06T14:51:57.962Z,5
2024-02-06T14:53:57.914Z,7
2024-02-06T14:55:57.820Z,9
2024-02-06T14:57:57.847Z,5
2024-02-06T15:02:06.742Z,8
2024-02-06T15:04:06.234Z,7
2024-02-06T15:06:06.694Z,6
2024-02-06T15:08:06.570Z,7
2024-02-06T15:10:06.423Z,6
2024-02-06T15:12:06.580Z,7
2024-02-06T15:14:06.184Z,6
2024-02-06T15:16:06.329Z,7
2024-02-06T15:18:06.794Z,6
2024-02-06T15:20:10.709Z,8
2024-02-06T15:22:06.233Z,6
2024-02-06T15:24:06.412Z,7
2024-02-06T15:26:06.161Z,6
2024-02-06T15:28:06.264Z,8
2024-02-06T15:30:07.026Z,4
2024-02-06T15:32:06.190Z,6
2024-02-06T15:34:06.212Z,9
2024-02-06T15:36:06.664Z,7
2024-02-06T15:38:06.315Z,7
2024-02-06T15:40:06.785Z,1
2024-02-06T15:42:06.199Z,4
2024-02-06T15:44:06.327Z,7
2024-02-06T15:46:06.797Z,8
2024-02-06T15:48:06.549Z,8
2024-02-06T15:50:11.603Z,8
2024-02-06T15:52:06.294Z,8
2024-02-06T15:54:07.270Z,8
2024-02-06T15:56:06.339Z,7
2024-02-06T15:58:06.545Z,6
2024-02-06T16:00:06.797Z,8
2024-02-06T16:02:06.442Z,7
2024-02-06T16:04:08.480Z,7
2024-02-06T16:06:06.387Z,9
2024-02-06T16:08:06.808Z,7
2024-02-06T16:10:29.242Z,11
2024-02-06T16:11:48.041Z,8
2024-02-06T16:13:45.163Z,9
2024-02-06T16:15:45.156Z,7
2024-02-06T16:17:45.304Z,8
2024-02-06T16:19:45.209Z,11
2024-02-06T16:21:45.065Z,14
2024-02-06T16:23:46.476Z,15
2024-02-06T16:25:45.114Z,16
2024-02-06T16:27:45.142Z,14
2024-02-06T16:29:45.050Z,11
2024-02-06T16:31:45.103Z,13
2024-02-06T16:33:45.803Z,12
2024-02-06T16:35:45.259Z,12
2024-02-06T16:37:46.078Z,14
2024-02-06T16:39:45.123Z,13
2024-02-06T16:41:45.105Z,12
2024-02-06T16:42:46.768Z,14
2024-02-06T16:44:07.835Z,10
2024-02-06T16:46:07.519Z,12
2024-02-06T16:48:06.352Z,13
2024-02-06T16:50:06.426Z,14
2024-02-06T16:52:06.047Z,14
2024-02-06T16:54:05.930Z,13
2024-02-06T16:56:06.139Z,15
2024-02-06T16:58:05.811Z,14
2024-02-06T17:00:08.351Z,13
2024-02-06T17:02:06.288Z,16
2024-02-06T17:04:05.813Z,16
2024-02-06T17:06:08.523Z,14
2024-02-06T17:08:05.906Z,14
2024-02-06T17:10:06.089Z,15
2024-02-06T17:12:06.227Z,15
2024-02-06T17:14:05.684Z,16
2024-02-06T17:16:06.427Z,19
2024-02-06T17:18:05.841Z,14
2024-02-06T17:20:06.321Z,21
2024-02-06T17:22:05.721Z,20
2024-02-06T17:24:08.296Z,20
2024-02-06T17:26:49.521Z,28
2024-02-06T17:28:29.373Z,20
2024-02-06T17:30:29.336Z,21
2024-02-06T17:32:29.316Z,16
2024-02-06T17:34:29.567Z,15
2024-02-06T17:36:29.441Z,14
2024-02-06T17:38:29.485Z,20
2024-02-06T17:40:29.417Z,18
2024-02-06T17:42:29.349Z,20
2024-02-06T17:44:29.462Z,17
2024-02-06T17:46:29.847Z,21
2024-02-06T17:48:29.360Z,22
2024-02-06T17:50:29.432Z,22
2024-02-06T17:52:29.317Z,22
2024-02-06T17:54:29.347Z,20
2024-02-06T17:56:29.263Z,19
2024-02-06T17:58:29.368Z,21
2024-02-06T18:00:29.316Z,20
2024-02-06T18:02:42.480Z,21
2024-02-06T18:04:29.327Z,20
2024-02-06T18:06:29.396Z,16
2024-02-06T18:08:29.522Z,18
2024-02-06T18:10:29.285Z,18
2024-02-06T18:12:29.323Z,15
2024-02-06T18:14:29.289Z,19
2024-02-06T18:16:29.319Z,21
2024-02-06T18:18:29.264Z,17
2024-02-06T18:20:29.385Z,16
2024-02-06T18:22:29.261Z,18
2024-02-06T18:24:29.302Z,17
2024-02-06T18:26:29.287Z,15
2024-02-06T18:28:29.293Z,18
2024-02-06T18:30:29.316Z,16
2024-02-06T18:32:29.252Z,19
2024-02-06T18:34:29.425Z,18
2024-02-06T18:36:29.316Z,21
2024-02-06T18:38:29.259Z,19
2024-02-06T18:40:29.306Z,16
2024-02-06T18:42:29.239Z,20
2024-02-06T18:44:29.252Z,20
2024-02-06T18:46:31.741Z,21
2024-02-06T18:48:29.269Z,20
2024-02-06T18:50:29.242Z,16
2024-02-06T18:52:29.385Z,16
2024-02-06T18:54:29.396Z,17
2024-02-06T18:56:29.221Z,20
2024-02-06T18:58:29.425Z,20
2024-02-06T19:00:29.423Z,21
2024-02-06T19:02:29.517Z,20
2024-02-06T19:04:30.224Z,22
2024-02-06T19:06:29.367Z,21
2024-02-06T19:08:29.267Z,19
2024-02-06T19:10:29.338Z,20
2024-02-06T19:12:29.313Z,14
2024-02-06T19:14:29.230Z,20
2024-02-06T19:16:29.314Z,19
2024-02-06T19:18:29.420Z,21
2024-02-06T19:20:29.295Z,10
2024-02-06T19:22:29.310Z,19
2024-02-06T19:24:29.272Z,18
2024-02-06T19:26:29.204Z,21
2024-02-06T19:28:29.352Z,20
2024-02-06T19:30:29.314Z,18
2024-02-06T19:32:29.238Z,15
2024-02-06T19:34:29.462Z,20
2024-02-06T19:36:29.641Z,16
2024-02-06T19:38:29.316Z,22
2024-02-06T19:40:29.232Z,20
2024-02-06T19:42:29.220Z,20
2024-02-06T19:44:29.263Z,20
2024-02-06T19:46:29.360Z,17
2024-02-06T19:48:29.425Z,18
2024-02-06T19:50:29.562Z,14
2024-02-06T19:52:29.242Z,14
2024-02-06T19:54:29.234Z,14
2024-02-06T19:57:22.926Z,19
2024-02-06T19:59:17.104Z,16
2024-02-06T20:01:21.854Z,19
2024-02-06T20:03:17.047Z,17
2024-02-06T20:05:17.278Z,16
2024-02-06T20:07:17.202Z,19
2024-02-06T20:09:17.043Z,18
2024-02-06T20:11:17.048Z,16
2024-02-06T20:13:17.055Z,19
2024-02-06T20:15:17.061Z,19
2024-02-06T20:17:17.014Z,20
2024-02-06T20:19:17.115Z,19
2024-02-06T20:21:23.960Z,16
2024-02-06T20:23:17.043Z,18
2024-02-06T20:25:17.169Z,16
2024-02-06T20:27:17.081Z,18
2024-02-06T20:29:17.024Z,13
2024-02-06T20:31:17.124Z,19
2024-02-06T20:33:17.177Z,21
2024-02-06T20:35:17.157Z,15
2024-02-06T20:37:17.105Z,21
2024-02-06T20:39:17.030Z,20
2024-02-06T20:41:17.088Z,16
2024-02-06T20:43:17.108Z,20
2024-02-06T20:45:17.089Z,18
2024-02-06T20:47:17.081Z,20
2024-02-06T20:49:17.206Z,19
2024-02-06T20:51:17.062Z,18
2024-02-06T20:53:17.198Z,20
2024-02-06T20:56:18.451Z,20
2024-02-06T20:58:05.335Z,21
2024-02-06T21:00:05.649Z,20
2024-02-06T21:02:05.673Z,22
2024-02-06T21:04:05.385Z,20
2024-02-06T21:06:06.102Z,20
2024-02-06T21:08:05.634Z,19
2024-02-06T21:10:05.598Z,19
2024-02-06T21:12:05.636Z,17
2024-02-06T21:14:05.228Z,21
2024-02-06T21:16:05.386Z,19
2024-02-06T21:18:05.382Z,18
2024-02-06T21:20:09.431Z,22
2024-02-06T21:22:05.366Z,18
2024-02-06T21:24:05.509Z,20
2024-02-06T21:26:47.323Z,20
2024-02-06T21:28:47.331Z,20
2024-02-06T21:30:47.284Z,22
2024-02-06T21:32:47.283Z,21
2024-02-06T21:34:47.356Z,20
2024-02-06T21:38:06.349Z,23
2024-02-06T21:39:22.142Z,22
2024-02-06T21:41:22.194Z,22
2024-02-06T21:43:22.211Z,20
2024-02-06T21:45:22.218Z,21
2024-02-06T21:47:22.575Z,20
2024-02-06T21:48:39.691Z,20
2024-02-06T21:50:14.202Z,19
2024-02-06T21:52:14.021Z,20
2024-02-06T21:54:14.038Z,12
2024-02-06T21:56:21.598Z,20
2024-02-06T21:58:13.989Z,22
2024-02-06T22:00:14.818Z,24
2024-02-06T22:02:14.201Z,20
2024-02-06T22:04:14.325Z,20
2024-02-06T22:06:18.398Z,20
2024-02-06T22:08:14.062Z,20
2024-02-06T22:10:14.196Z,22
2024-02-06T22:12:13.977Z,19
2024-02-06T22:14:47.463Z,33
2024-02-06T22:16:01.643Z,20
2024-02-06T22:18:00.269Z,18
2024-02-06T22:20:00.571Z,20
2024-02-06T22:22:43.479Z,23
2024-02-06T22:24:11.491Z,20
2024-02-06T22:26:11.365Z,13
2024-02-06T22:29:03.388Z,21
2024-02-06T22:30:42.035Z,17
2024-02-06T22:32:41.639Z,18
2024-02-06T22:34:41.881Z,19
2024-02-06T22:36:43.619Z,18
2024-02-06T22:38:41.613Z,18
2024-02-06T22:40:41.672Z,17
2024-02-06T22:42:41.603Z,19
2024-02-06T22:44:41.538Z,19
2024-02-06T22:46:41.583Z,15
2024-02-06T22:48:41.573Z,15
2024-02-06T22:50:41.597Z,19
2024-02-06T22:52:41.608Z,21
2024-02-06T22:54:41.524Z,18
2024-02-06T22:57:25.033Z,21
2024-02-06T22:58:58.053Z,20
2024-02-06T23:00:58.149Z,15
2024-02-06T23:02:58.163Z,15
2024-02-06T23:04:58.062Z,14
2024-02-06T23:06:58.096Z,14
2024-02-06T23:08:58.043Z,17
2024-02-06T23:10:58.070Z,15
2024-02-06T23:12:58.025Z,19
2024-02-06T23:15:37.495Z,17
2024-02-06T23:17:06.907Z,19
2024-02-06T23:19:07.027Z,17
2024-02-06T23:21:06.858Z,8
2024-02-06T23:23:06.890Z,18
2024-02-06T23:25:07.462Z,17
2024-02-06T23:27:06.916Z,17
2024-02-06T23:29:07.052Z,18
2024-02-06T23:31:06.955Z,17
2024-02-06T23:33:06.953Z,13
2024-02-06T23:35:07.241Z,20
2024-02-06T23:37:06.895Z,15
2024-02-06T23:39:59.648Z,20
2024-02-06T23:41:56.007Z,18
2024-02-06T23:44:19.363Z,18
2024-02-06T23:45:41.873Z,14
2024-02-06T23:47:41.953Z,17
2024-02-06T23:49:41.978Z,14
2024-02-06T23:51:41.867Z,17
2024-02-06T23:53:41.887Z,18
2024-02-06T23:55:41.970Z,18
2024-02-06T23:57:41.933Z,16
2024-02-06T23:59:41.871Z,15
